FW0907 Weather Reports


time (UTC)temp
C
wind
direction
speed
KPH
gust
KPH
rain 1hr
cm
rain 24hr
cm
rain mn
cm
humidity
%
barometer
mb
20200229103917 13 0.0 0.0 0.00 0.00 0.00 82 1011.9
20200229102923 13 0.0 1.6 0.00 0.00 0.00 81 1011.7
20200229101916 13 0.0 0.0 0.00 0.00 0.00 80 1011.5
20200229100928 13 157 1.6 3.2 0.00 0.00 0.00 78 1011.4
20200229095922 14 0.0 1.6 0.00 0.00 0.00 75 1011.4
20200229094917 14 135 1.6 3.2 0.00 0.00 0.00 75 1011.1
20200229093918 14 0.0 0.0 0.00 0.00 0.00 77 1010.8
20200229092927 14 0.0 1.6 0.00 0.00 0.00 76 1011.2
20200229090922 14 0.0 1.6 0.00 0.00 0.00 78 1011.4
20200229085920 14 0.0 0.0 0.00 0.00 0.00 77 1011.8
20200229084918 14 0.0 1.6 0.00 0.00 0.00 78 1011.8
20200229083917 14 0.0 0.0 0.00 0.00 0.00 77 1012.4
20200229082917 14 135 1.6 1.6 0.00 0.00 0.00 76 1012.6
20200229081921 13 0.0 0.0 0.00 0.00 0.00 76 1012.6
20200229080917 13 0.0 0.0 0.00 0.00 0.00 76 1013.0
20200229075918 13 90 1.6 1.6 0.00 0.00 0.00 73 1013.0
20200229074922 13 0.0 1.6 0.00 0.00 0.00 73 1013.1
20200229073918 13 0.0 1.6 0.00 0.00 0.00 76 1012.9
20200229072921 14 90 3.2 4.8 0.00 0.00 0.00 75 1013.2
20200229071916 13 90 4.8 6.4 0.00 0.00 0.00 77 1013.4
20200229070916 13 67 4.8 6.4 0.00 0.00 0.00 78 1013.2
20200229065917 13 67 1.6 3.2 0.00 0.00 0.00 79 1013.6
20200229064916 13 22 3.2 4.8 0.00 0.00 0.00 79 1014.0
20200229063917 13 22 3.2 4.8 0.00 0.00 0.00 80 1014.1
20200229062917 13 0.0 1.6 0.00 0.00 0.00 79 1014.3
20200229061917 13 337 1.6 1.6 0.00 0.00 0.00 78 1014.4
20200229060916 13 337 1.6 1.6 0.00 0.00 0.00 79 1014.2
20200229055918 13 337 3.2 4.8 0.00 0.00 0.00 79 1014.2
20200229054917 13 0 1.6 3.2 0.00 0.00 0.00 77 1014.1
20200229053917 13 0.0 1.6 0.00 0.00 0.00 77 1014.1
20200229052916 13 22 1.6 3.2 0.00 0.00 0.00 76 1014.1
20200229051916 13 0.0 1.6 0.00 0.00 0.00 76 1014.0
20200229050932 13 45 1.6 1.6 0.00 0.00 0.00 75 1014.2
20200229045916 14 45 1.6 3.2 0.00 0.00 0.00 73 1014.0
20200229044922 15 45 1.6 1.6 0.00 0.00 0.00 72 1013.9
20200229043917 15 0.0 0.0 0.00 0.00 0.00 64 1013.6
20200229042923 16 45 1.6 1.6 0.00 0.00 0.00 68 1013.3
20200229041916 16 0.0 0.0 0.00 0.00 0.00 67 1013.2
20200229040916 16 0.0 1.6 0.00 0.00 0.00 71 1013.1
20200229035916 17 0.0 1.6 0.00 0.00 0.00 66 1013.0
20200229034917 17 0.0 1.6 0.00 0.00 0.00 62 1013.1
20200229033916 18 0.0 0.0 0.00 0.00 0.00 61 1013.0
20200229032917 18 0.0 1.6 0.00 0.00 0.00 62 1012.8
20200229031922 18 45 1.6 3.2 0.00 0.00 0.00 62 1012.7
20200229030918 18 0 1.6 3.2 0.00 0.00 0.00 63 1012.9
20200229030016 18 337 1.6 3.2 0.00 0.00 0.00 66 1013.2
20200229024957 18 337 1.6 1.6 0.00 0.00 0.00 67 1013.2
20200229024833 18 0.0 0.0 0.00 0.00 0.00 67 1013.1
20200229024706 18 0.0 0.0 0.00 0.00 0.00 67 1013.2
20200229024217 19 337 1.6 3.2 0.00 0.00 0.00 67 1013.2
20200229023221 19 337 1.6 3.2 0.00 0.00 0.00 66 1013.1
20200229022218 19 337 1.6 4.8 0.00 0.00 0.00 65 1013.0
20200229021217 19 0 1.6 4.8 0.00 0.00 0.00 63 1012.9
20200229020217 19 0 1.6 3.2 0.00 0.00 0.00 65 1012.5
20200229015217 19 0 1.6 3.2 0.00 0.00 0.00 65 1012.7
20200229014216 19 292 1.6 3.2 0.00 0.00 0.00 63 1012.9
20200229013216 20 292 1.6 1.6 0.00 0.00 0.00 60 1012.9
20200229012216 20 292 1.6 1.6 0.00 0.00 0.00 58 1012.8
20200229011216 21 292 1.6 1.6 0.00 0.00 0.00 59 1013.0
20200229010216 22 292 1.6 3.2 0.00 0.00 0.00 57 1013.0
20200229005217 22 292 3.2 4.8 0.00 0.00 0.00 54 1012.9
20200229004221 23 292 6.4 9.7 0.00 0.00 0.00 51 1012.8
20200229003216 24 292 4.8 11.3 0.00 0.00 0.00 49 1012.7
20200229002216 25 270 6.4 9.7 0.00 0.00 0.00 47 1012.6
20200229001221 25 270 8.0 12.9 0.00 0.00 0.00 45 1012.7
20200229000216 25 270 6.4 9.7 0.00 0.00 0.00 42 1012.8
20200228235221 26 270 11.3 14.5 0.00 0.00 0.00 40 1013.0
20200228234217 26 270 12.9 17.7 0.00 0.00 0.00 40 1012.9
20200228233216 26 270 11.3 16.1 0.00 0.00 0.00 39 1012.9
20200228232216 27 270 12.9 17.7 0.00 0.00 0.00 38 1012.9
20200228231217 27 270 12.9 16.1 0.00 0.00 0.00 39 1012.7
20200228230221 28 270 14.5 24.1 0.00 0.00 0.00 37 1012.6
20200228225216 28 247 12.9 17.7 0.00 0.00 0.00 38 1012.5
20200228224217 28 225 8.0 12.9 0.00 0.00 0.00 40 1012.5
20200228223216 29 247 9.7 17.7 0.00 0.00 0.00 40 1012.4
20200228222222 28 270 8.0 17.7 0.00 0.00 0.00 41 1012.4
20200228221216 29 225 8.0 16.1 0.00 0.00 0.00 41 1012.4
20200228220216 30 270 6.4 12.9 0.00 0.00 0.00 43 1012.1
20200228215216 30 247 8.0 12.9 0.00 0.00 0.00 42 1012.1
20200228214221 30 225 6.4 9.7 0.00 0.00 0.00 42 1012.1
20200228213216 30 270 6.4 9.7 0.00 0.00 0.00 37 1012.2
20200228212216 30 270 8.0 11.3 0.00 0.00 0.00 34 1012.3
20200228211221 29 270 3.2 6.4 0.00 0.00 0.00 37 1012.4
20200228210216 29 247 4.8 9.7 0.00 0.00 0.00 31 1012.5
20200228205216 29 270 6.4 11.3 0.00 0.00 0.00 31 1012.6
20200228204216 29 247 4.8 11.3 0.00 0.00 0.00 31 1012.7
20200228203216 28 247 6.4 9.7 0.00 0.00 0.00 33 1012.7
20200228202216 28 292 4.8 6.4 0.00 0.00 0.00 34 1013.0
20200228201216 28 270 6.4 11.3 0.00 0.00 0.00 34 1013.2
20200228200217 28 247 3.2 6.4 0.00 0.00 0.00 35 1013.3
20200228195216 27 292 4.8 6.4 0.00 0.00 0.00 40 1013.5
20200228194216 27 247 3.2 4.8 0.00 0.00 0.00 43 1013.8
20200228193220 26 270 4.8 11.3 0.00 0.00 0.00 43 1014.1
20200228192215 26 315 3.2 4.8 0.00 0.00 0.00 49 1014.1
20200228191217 25 292 6.4 11.3 0.00 0.00 0.00 54 1014.4
20200228190217 25 337 4.8 6.4 0.00 0.00 0.00 54 1014.6
20200228185216 24 270 8.0 11.3 0.00 0.00 0.00 52 1014.8
20200228184216 24 292 4.8 9.7 0.00 0.00 0.00 52 1014.8
20200228183216 24 315 4.8 6.4 0.00 0.00 0.00 52 1014.9
20200228182216 23 270 6.4 11.3 0.00 0.00 0.00 54 1015.0
20200228181220 23 202 3.2 4.8 0.00 0.00 0.00 53 1015.2
20200228180215 23 292 4.8 6.4 0.00 0.00 0.00 57 1015.2
20200228175221 22 270 4.8 6.4 0.00 0.00 0.00 57 1015.1
20200228174216 22 225 1.6 3.2 0.00 0.00 0.00 54 1015.1
20200228173215 22 270 4.8 6.4 0.00 0.00 0.00 59 1015.2
20200228172215 21 202 1.6 1.6 0.00 0.00 0.00 62 1015.2
20200228171216 20 292 1.6 3.2 0.00 0.00 0.00 66 1015.2
20200228170221 20 292 1.6 3.2 0.00 0.00 0.00 66 1015.3
20200228165216 20 292 3.2 4.8 0.00 0.00 0.00 67 1015.4
20200228164215 20 315 1.6 3.2 0.00 0.00 0.00 69 1015.3
20200228163216 19 292 3.2 4.8 0.00 0.00 0.00 68 1015.4
20200228162218 18 22 3.2 4.8 0.00 0.00 0.00 73 1015.1
20200228161215 17 315 4.8 6.4 0.00 0.00 0.00 74 1015.3
20200228160216 17 315 3.2 4.8 0.00 0.00 0.00 75 1015.0
20200228155216 17 0.0 1.6 0.00 0.00 0.00 74 1014.8
20200228154216 16 0.0 0.0 0.00 0.00 0.00 75 1014.8
20200228153221 16 0.0 0.0 0.00 0.00 0.00 75 1014.8
20200228152223 15 0.0 0.0 0.00 0.00 0.00 78 1014.6
20200228151216 13 0.0 0.0 0.00 0.00 0.00 80 1014.5
20200228150216 12 0.0 0.0 0.00 0.00 0.00 81 1014.4
20200228145215 12 90 1.6 1.6 0.00 0.00 0.00 82 1014.3
20200228144216 12 90 3.2 4.8 0.00 0.00 0.00 82 1014.1
20200228143220 11 0.0 0.0 0.00 0.00 0.00 82 1014.0
20200228142215 10 0.0 1.6 0.00 0.00 0.00 84 1014.0
20200228141215 10 90 1.6 3.2 0.00 0.00 0.00 86 1013.9
20200228140551 9 90 3.2 3.2 0.00 0.00 0.00 86 1013.9
20200228135225 9 90 3.2 3.2 0.00 0.00 0.00 84 1013.8
20200228133228 10 90 3.2 4.8 0.00 0.00 0.00 84 1013.7
20200228132217 9 90 4.8 6.4 0.00 0.00 0.00 84 1013.9
20200228131216 9 67 1.6 3.2 0.00 0.00 0.00 81 1013.9
20200228130217 9 0.0 0.0 0.00 0.00 0.00 82 1013.9
20200228125220 9 0.0 0.0 0.00 0.00 0.00 80 1013.7
20200228124216 9 0.0 0.0 0.00 0.00 0.00 80 1013.6
20200228123230 10 67 1.6 3.2 0.00 0.00 0.00 79 1013.7
20200228122220 10 67 1.6 3.2 0.00 0.00 0.00 81 1013.6
20200228121226 10 67 1.6 3.2 0.00 0.00 0.00 83 1013.5
20200228120216 11 90 1.6 3.2 0.00 0.00 0.00 85 1013.5
20200228115225 11 0.0 0.0 0.00 0.00 0.00 85 1013.3
20200228114215 11 112 1.6 3.2 0.00 0.00 0.00 87 1013.2
20200228113220 10 112 1.6 3.2 0.00 0.00 0.00 87 1013.1
20200228112215 10 112 1.6 1.6 0.00 0.00 0.00 85 1013.1
20200228111217 10 112 3.2 4.8 0.00 0.00 0.00 85 1013.0
20200228110216 10 90 3.2 4.8 0.00 0.00 0.00 84 1012.9
20200228105220 10 90 3.2 4.8 0.00 0.00 0.00 83 1012.9